sensor_id;sensor_type;location;lat;lon;timestamp;P1;durP1;ratioP1;P2;durP2;ratioP2
283;SDS011;125;52.516;13.426;2023-11-21T00:00:52;4.70;;;2.43;;
283;SDS011;125;52.516;13.426;2023-11-21T00:03:19;4.83;;;3.53;;
283;SDS011;125;52.516;13.426;2023-11-21T00:05:48;4.77;;;4.03;;
283;SDS011;125;52.516;13.426;2023-11-21T00:08:16;8.37;;;5.13;;
283;SDS011;125;52.516;13.426;2023-11-21T00:10:43;3.93;;;2.90;;
283;SDS011;125;52.516;13.426;2023-11-21T00:13:10;4.60;;;4.10;;
283;SDS011;125;52.516;13.426;2023-11-21T00:15:38;11.30;;;3.87;;
283;SDS011;125;52.516;13.426;2023-11-21T00:18:05;9.70;;;5.77;;
283;SDS011;125;52.516;13.426;2023-11-21T00:20:32;7.30;;;4.50;;
283;SDS011;125;52.516;13.426;2023-11-21T00:22:59;5.47;;;3.63;;
283;SDS011;125;52.516;13.426;2023-11-21T00:25:28;4.53;;;3.43;;
283;SDS011;125;52.516;13.426;2023-11-21T00:27:56;7.17;;;6.77;;
283;SDS011;125;52.516;13.426;2023-11-21T00:30:23;9.43;;;5.50;;
283;SDS011;125;52.516;13.426;2023-11-21T00:32:50;7.87;;;4.90;;
283;SDS011;125;52.516;13.426;2023-11-21T00:35:16;5.50;;;3.17;;
283;SDS011;125;52.516;13.426;2023-11-21T00:37:44;8.90;;;6.53;;
283;SDS011;125;52.516;13.426;2023-11-21T00:40:11;9.03;;;6.50;;
283;SDS011;125;52.516;13.426;2023-11-21T00:42:41;8.80;;;5.37;;
283;SDS011;125;52.516;13.426;2023-11-21T00:45:09;11.23;;;7.40;;
283;SDS011;125;52.516;13.426;2023-11-21T00:47:36;6.83;;;5.73;;
283;SDS011;125;52.516;13.426;2023-11-21T00:50:03;25.17;;;7.47;;
283;SDS011;125;52.516;13.426;2023-11-21T00:52:31;11.73;;;6.73;;
283;SDS011;125;52.516;13.426;2023-11-21T00:54:58;9.37;;;6.23;;
283;SDS011;125;52.516;13.426;2023-11-21T00:57:26;11.67;;;7.83;;
283;SDS011;125;52.516;13.426;2023-11-21T00:59:55;17.27;;;6.20;;
283;SDS011;125;52.516;13.426;2023-11-21T01:02:22;8.63;;;5.50;;
283;SDS011;125;52.516;13.426;2023-11-21T01:04:50;10.10;;;7.23;;
283;SDS011;125;52.516;13.426;2023-11-21T01:07:17;13.37;;;6.60;;
283;SDS011;125;52.516;13.426;2023-11-21T01:09:45;9.57;;;6.60;;
283;SDS011;125;52.516;13.426;2023-11-21T01:12:13;16.10;;;5.87;;
283;SDS011;125;52.516;13.426;2023-11-21T01:14:40;13.13;;;9.47;;
283;SDS011;125;52.516;13.426;2023-11-21T01:17:08;12.60;;;6.67;;
283;SDS011;125;52.516;13.426;2023-11-21T01:19:35;11.83;;;8.73;;
283;SDS011;125;52.516;13.426;2023-11-21T01:22:02;8.60;;;6.90;;
283;SDS011;125;52.516;13.426;2023-11-21T01:24:29;12.10;;;7.13;;
283;SDS011;125;52.516;13.426;2023-11-21T01:26:56;14.10;;;8.83;;
283;SDS011;125;52.516;13.426;2023-11-21T01:29:23;13.97;;;6.43;;
283;SDS011;125;52.516;13.426;2023-11-21T01:31:50;14.63;;;6.83;;
283;SDS011;125;52.516;13.426;2023-11-21T01:34:19;22.93;;;8.03;;
283;SDS011;125;52.516;13.426;2023-11-21T01:36:46;12.53;;;6.97;;
283;SDS011;125;52.516;13.426;2023-11-21T01:39:13;9.27;;;6.27;;
283;SDS011;125;52.516;13.426;2023-11-21T01:41:42;11.33;;;7.10;;
283;SDS011;125;52.516;13.426;2023-11-21T01:44:10;10.73;;;6.97;;
283;SDS011;125;52.516;13.426;2023-11-21T01:46:38;10.70;;;5.33;;
283;SDS011;125;52.516;13.426;2023-11-21T01:49:05;13.20;;;6.83;;
283;SDS011;125;52.516;13.426;2023-11-21T01:51:35;6.23;;;5.27;;
283;SDS011;125;52.516;13.426;2023-11-21T01:54:03;11.13;;;5.90;;
283;SDS011;125;52.516;13.426;2023-11-21T01:56:31;12.83;;;3.70;;
283;SDS011;125;52.516;13.426;2023-11-21T01:58:58;7.33;;;6.67;;
283;SDS011;125;52.516;13.426;2023-11-21T02:01:25;8.13;;;5.13;;
283;SDS011;125;52.516;13.426;2023-11-21T02:03:52;6.97;;;5.00;;
283;SDS011;125;52.516;13.426;2023-11-21T02:06:20;11.73;;;5.70;;
283;SDS011;125;52.516;13.426;2023-11-21T02:08:50;10.33;;;6.07;;
283;SDS011;125;52.516;13.426;2023-11-21T02:11:18;5.93;;;4.10;;
283;SDS011;125;52.516;13.426;2023-11-21T02:13:45;8.30;;;5.60;;
283;SDS011;125;52.516;13.426;2023-11-21T02:16:12;18.17;;;4.50;;
283;SDS011;125;52.516;13.426;2023-11-21T02:18:39;6.37;;;2.57;;
283;SDS011;125;52.516;13.426;2023-11-21T02:21:07;24.43;;;4.50;;
283;SDS011;125;52.516;13.426;2023-11-21T02:23:36;13.83;;;6.13;;
283;SDS011;125;52.516;13.426;2023-11-21T02:26:07;6.70;;;4.57;;
283;SDS011;125;52.516;13.426;2023-11-21T02:28:34;6.00;;;3.53;;
283;SDS011;125;52.516;13.426;2023-11-21T02:31:03;7.17;;;4.83;;
283;SDS011;125;52.516;13.426;2023-11-21T02:33:30;17.33;;;6.00;;
283;SDS011;125;52.516;13.426;2023-11-21T02:35:58;3.93;;;3.23;;
283;SDS011;125;52.516;13.426;2023-11-21T02:38:25;6.03;;;2.77;;
283;SDS011;125;52.516;13.426;2023-11-21T02:40:54;3.80;;;3.37;;
283;SDS011;125;52.516;13.426;2023-11-21T02:43:21;4.57;;;3.47;;
283;SDS011;125;52.516;13.426;2023-11-21T02:45:48;6.03;;;5.00;;
283;SDS011;125;52.516;13.426;2023-11-21T02:48:14;15.97;;;4.77;;
283;SDS011;125;52.516;13.426;2023-11-21T02:50:41;6.67;;;4.00;;
283;SDS011;125;52.516;13.426;2023-11-21T02:53:08;2.17;;;1.30;;
283;SDS011;125;52.516;13.426;2023-11-21T02:55:35;6.80;;;3.37;;
283;SDS011;125;52.516;13.426;2023-11-21T02:58:04;3.17;;;2.47;;
283;SDS011;125;52.516;13.426;2023-11-21T03:00:31;5.73;;;3.90;;
283;SDS011;125;52.516;13.426;2023-11-21T03:02:58;7.60;;;4.33;;
283;SDS011;125;52.516;13.426;2023-11-21T03:05:25;5.17;;;3.13;;
283;SDS011;125;52.516;13.426;2023-11-21T03:07:53;9.73;;;4.67;;
283;SDS011;125;52.516;13.426;2023-11-21T03:10:21;6.10;;;3.60;;
283;SDS011;125;52.516;13.426;2023-11-21T03:12:48;5.73;;;2.60;;
283;SDS011;125;52.516;13.426;2023-11-21T03:15:16;4.73;;;4.23;;
283;SDS011;125;52.516;13.426;2023-11-21T03:17:43;3.47;;;2.40;;
283;SDS011;125;52.516;13.426;2023-11-21T03:20:10;10.90;;;3.60;;
283;SDS011;125;52.516;13.426;2023-11-21T03:22:38;6.70;;;4.43;;
283;SDS011;125;52.516;13.426;2023-11-21T03:25:06;10.10;;;5.17;;
283;SDS011;125;52.516;13.426;2023-11-21T03:27:35;4.00;;;3.57;;
283;SDS011;125;52.516;13.426;2023-11-21T03:30:04;5.90;;;4.10;;
283;SDS011;125;52.516;13.426;2023-11-21T03:32:33;3.90;;;2.87;;
283;SDS011;125;52.516;13.426;2023-11-21T03:35:00;6.40;;;5.33;;
283;SDS011;125;52.516;13.426;2023-11-21T03:37:28;3.00;;;2.47;;
283;SDS011;125;52.516;13.426;2023-11-21T03:39:55;4.13;;;3.30;;
283;SDS011;125;52.516;13.426;2023-11-21T03:42:22;3.90;;;2.80;;
283;SDS011;125;52.516;13.426;2023-11-21T03:44:50;4.90;;;2.37;;
283;SDS011;125;52.516;13.426;2023-11-21T03:47:17;2.50;;;1.73;;
283;SDS011;125;52.516;13.426;2023-11-21T03:49:46;3.33;;;2.53;;
283;SDS011;125;52.516;13.426;2023-11-21T03:52:13;4.00;;;3.07;;
283;SDS011;125;52.516;13.426;2023-11-21T03:54:40;4.80;;;4.50;;
283;SDS011;125;52.516;13.426;2023-11-21T03:57:06;4.57;;;2.03;;
283;SDS011;125;52.516;13.426;2023-11-21T03:59:34;3.13;;;2.93;;
283;SDS011;125;52.516;13.426;2023-11-21T04:02:01;4.03;;;3.83;;
283;SDS011;125;52.516;13.426;2023-11-21T04:04:28;8.03;;;4.50;;
283;SDS011;125;52.516;13.426;2023-11-21T04:06:56;5.70;;;3.40;;
283;SDS011;125;52.516;13.426;2023-11-21T04:09:23;4.00;;;2.40;;
283;SDS011;125;52.516;13.426;2023-11-21T04:11:50;9.17;;;3.50;;
283;SDS011;125;52.516;13.426;2023-11-21T04:14:17;3.93;;;1.70;;
283;SDS011;125;52.516;13.426;2023-11-21T04:16:44;4.00;;;2.47;;
283;SDS011;125;52.516;13.426;2023-11-21T04:19:11;4.60;;;3.07;;
283;SDS011;125;52.516;13.426;2023-11-21T04:21:39;3.07;;;2.30;;
283;SDS011;125;52.516;13.426;2023-11-21T04:24:08;2.73;;;2.50;;
283;SDS011;125;52.516;13.426;2023-11-21T04:26:35;2.60;;;2.23;;
283;SDS011;125;52.516;13.426;2023-11-21T04:29:02;5.00;;;2.07;;
283;SDS011;125;52.516;13.426;2023-11-21T04:31:29;8.03;;;6.60;;
283;SDS011;125;52.516;13.426;2023-11-21T04:33:56;5.80;;;3.47;;
283;SDS011;125;52.516;13.426;2023-11-21T04:36:23;5.87;;;2.40;;
283;SDS011;125;52.516;13.426;2023-11-21T04:38:50;3.40;;;1.43;;
283;SDS011;125;52.516;13.426;2023-11-21T04:41:18;3.10;;;2.80;;
283;SDS011;125;52.516;13.426;2023-11-21T04:43:45;3.07;;;1.70;;
283;SDS011;125;52.516;13.426;2023-11-21T04:46:12;3.40;;;3.00;;
283;SDS011;125;52.516;13.426;2023-11-21T04:48:39;4.33;;;2.90;;
283;SDS011;125;52.516;13.426;2023-11-21T04:51:06;3.67;;;2.57;;
283;SDS011;125;52.516;13.426;2023-11-21T04:53:33;5.10;;;2.67;;
283;SDS011;125;52.516;13.426;2023-11-21T04:56:01;2.20;;;1.83;;
283;SDS011;125;52.516;13.426;2023-11-21T04:58:29;2.03;;;1.80;;
283;SDS011;125;52.516;13.426;2023-11-21T05:00:57;3.30;;;2.97;;
283;SDS011;125;52.516;13.426;2023-11-21T05:03:24;8.53;;;1.60;;
283;SDS011;125;52.516;13.426;2023-11-21T05:05:51;3.47;;;2.37;;
283;SDS011;125;52.516;13.426;2023-11-21T05:08:18;5.97;;;2.07;;
283;SDS011;125;52.516;13.426;2023-11-21T05:10:47;2.77;;;2.57;;
283;SDS011;125;52.516;13.426;2023-11-21T05:13:14;1.33;;;1.20;;
283;SDS011;125;52.516;13.426;2023-11-21T05:15:43;3.53;;;2.40;;
283;SDS011;125;52.516;13.426;2023-11-21T05:18:10;2.13;;;1.97;;
283;SDS011;125;52.516;13.426;2023-11-21T05:20:38;5.83;;;2.53;;
283;SDS011;125;52.516;13.426;2023-11-21T05:23:05;2.93;;;2.73;;
283;SDS011;125;52.516;13.426;2023-11-21T05:25:33;8.87;;;1.87;;
283;SDS011;125;52.516;13.426;2023-11-21T05:28:00;3.00;;;2.60;;
283;SDS011;125;52.516;13.426;2023-11-21T05:30:27;1.10;;;0.90;;
283;SDS011;125;52.516;13.426;2023-11-21T05:32:56;3.17;;;2.20;;
283;SDS011;125;52.516;13.426;2023-11-21T05:35:22;2.40;;;2.20;;
283;SDS011;125;52.516;13.426;2023-11-21T05:37:49;2.60;;;2.40;;
283;SDS011;125;52.516;13.426;2023-11-21T05:40:16;1.57;;;1.50;;
283;SDS011;125;52.516;13.426;2023-11-21T05:42:43;2.90;;;2.40;;
283;SDS011;125;52.516;13.426;2023-11-21T05:45:10;4.50;;;2.80;;
283;SDS011;125;52.516;13.426;2023-11-21T05:47:38;2.97;;;1.80;;
283;SDS011;125;52.516;13.426;2023-11-21T05:50:07;5.03;;;3.07;;
283;SDS011;125;52.516;13.426;2023-11-21T05:52:39;1.80;;;1.50;;
283;SDS011;125;52.516;13.426;2023-11-21T05:55:06;1.30;;;0.93;;
283;SDS011;125;52.516;13.426;2023-11-21T05:57:33;4.40;;;2.10;;
283;SDS011;125;52.516;13.426;2023-11-21T06:00:02;3.70;;;1.40;;
283;SDS011;125;52.516;13.426;2023-11-21T06:02:36;5.60;;;2.00;;
283;SDS011;125;52.516;13.426;2023-11-21T06:05:03;6.83;;;2.50;;
283;SDS011;125;52.516;13.426;2023-11-21T06:07:31;4.20;;;3.10;;
283;SDS011;125;52.516;13.426;2023-11-21T06:09:58;1.77;;;1.70;;
283;SDS011;125;52.516;13.426;2023-11-21T06:12:27;6.67;;;2.67;;
283;SDS011;125;52.516;13.426;2023-11-21T06:14:54;3.40;;;2.13;;
283;SDS011;125;52.516;13.426;2023-11-21T06:17:21;3.97;;;2.30;;
283;SDS011;125;52.516;13.426;2023-11-21T06:19:49;2.23;;;0.70;;
283;SDS011;125;52.516;13.426;2023-11-21T06:22:18;2.40;;;1.23;;
283;SDS011;125;52.516;13.426;2023-11-21T06:24:46;3.73;;;3.53;;
283;SDS011;125;52.516;13.426;2023-11-21T06:27:13;1.63;;;0.83;;
283;SDS011;125;52.516;13.426;2023-11-21T06:29:40;3.33;;;2.93;;
283;SDS011;125;52.516;13.426;2023-11-21T06:32:08;3.00;;;1.33;;
283;SDS011;125;52.516;13.426;2023-11-21T06:34:35;1.33;;;1.30;;
283;SDS011;125;52.516;13.426;2023-11-21T06:37:02;1.20;;;1.10;;
283;SDS011;125;52.516;13.426;2023-11-21T06:39:29;5.33;;;1.70;;
283;SDS011;125;52.516;13.426;2023-11-21T06:41:57;1.80;;;1.70;;
283;SDS011;125;52.516;13.426;2023-11-21T06:44:25;3.63;;;1.57;;
283;SDS011;125;52.516;13.426;2023-11-21T06:46:53;1.27;;;1.27;;
283;SDS011;125;52.516;13.426;2023-11-21T06:49:20;3.83;;;1.40;;
283;SDS011;125;52.516;13.426;2023-11-21T06:51:48;3.97;;;1.93;;
283;SDS011;125;52.516;13.426;2023-11-21T06:54:15;4.20;;;2.80;;
283;SDS011;125;52.516;13.426;2023-11-21T06:56:43;3.13;;;2.10;;
283;SDS011;125;52.516;13.426;2023-11-21T06:59:11;3.07;;;1.93;;
283;SDS011;125;52.516;13.426;2023-11-21T07:01:38;3.33;;;2.37;;
283;SDS011;125;52.516;13.426;2023-11-21T07:04:06;4.07;;;2.30;;
283;SDS011;125;52.516;13.426;2023-11-21T07:06:34;2.83;;;2.63;;
283;SDS011;125;52.516;13.426;2023-11-21T07:09:03;3.27;;;1.97;;
283;SDS011;125;52.516;13.426;2023-11-21T07:11:30;2.20;;;2.00;;
283;SDS011;125;52.516;13.426;2023-11-21T07:13:57;2.60;;;0.97;;
283;SDS011;125;52.516;13.426;2023-11-21T07:16:26;2.10;;;1.73;;
283;SDS011;125;52.516;13.426;2023-11-21T07:18:53;4.87;;;2.40;;
283;SDS011;125;52.516;13.426;2023-11-21T07:21:21;2.30;;;1.93;;
283;SDS011;125;52.516;13.426;2023-11-21T07:23:48;2.63;;;1.17;;
283;SDS011;125;52.516;13.426;2023-11-21T07:26:14;7.67;;;2.60;;
283;SDS011;125;52.516;13.426;2023-11-21T07:28:42;1.57;;;1.10;;
283;SDS011;125;52.516;13.426;2023-11-21T07:31:09;2.57;;;2.00;;
283;SDS011;125;52.516;13.426;2023-11-21T07:33:38;3.50;;;3.30;;
283;SDS011;125;52.516;13.426;2023-11-21T07:36:06;1.53;;;0.70;;
283;SDS011;125;52.516;13.426;2023-11-21T07:38:33;1.63;;;1.50;;
283;SDS011;125;52.516;13.426;2023-11-21T07:41:00;1.57;;;1.47;;
283;SDS011;125;52.516;13.426;2023-11-21T07:43:27;8.27;;;2.70;;
283;SDS011;125;52.516;13.426;2023-11-21T07:45:59;2.83;;;1.93;;
283;SDS011;125;52.516;13.426;2023-11-21T07:48:27;1.27;;;1.10;;
283;SDS011;125;52.516;13.426;2023-11-21T07:50:55;2.20;;;1.50;;
283;SDS011;125;52.516;13.426;2023-11-21T07:53:23;1.00;;;0.80;;
283;SDS011;125;52.516;13.426;2023-11-21T07:55:50;3.33;;;1.77;;
283;SDS011;125;52.516;13.426;2023-11-21T07:58:17;1.73;;;1.13;;
283;SDS011;125;52.516;13.426;2023-11-21T08:00:44;4.10;;;2.27;;
283;SDS011;125;52.516;13.426;2023-11-21T08:03:12;1.47;;;1.37;;
283;SDS011;125;52.516;13.426;2023-11-21T08:05:39;1.93;;;1.80;;
283;SDS011;125;52.516;13.426;2023-11-21T08:08:08;2.20;;;1.13;;
283;SDS011;125;52.516;13.426;2023-11-21T08:10:35;4.53;;;1.80;;
283;SDS011;125;52.516;13.426;2023-11-21T08:13:02;1.33;;;1.33;;
283;SDS011;125;52.516;13.426;2023-11-21T08:15:29;1.47;;;1.43;;
283;SDS011;125;52.516;13.426;2023-11-21T08:17:56;2.77;;;2.43;;
283;SDS011;125;52.516;13.426;2023-11-21T08:20:23;2.33;;;2.17;;
283;SDS011;125;52.516;13.426;2023-11-21T08:22:50;1.43;;;0.87;;
283;SDS011;125;52.516;13.426;2023-11-21T08:25:19;4.47;;;1.30;;
283;SDS011;125;52.516;13.426;2023-11-21T08:27:47;2.20;;;2.10;;
283;SDS011;125;52.516;13.426;2023-11-21T08:30:14;2.20;;;1.80;;
283;SDS011;125;52.516;13.426;2023-11-21T08:32:44;2.03;;;1.93;;
283;SDS011;125;52.516;13.426;2023-11-21T08:35:11;1.77;;;1.23;;
283;SDS011;125;52.516;13.426;2023-11-21T08:37:38;6.10;;;2.00;;
283;SDS011;125;52.516;13.426;2023-11-21T08:40:06;2.80;;;1.20;;
283;SDS011;125;52.516;13.426;2023-11-21T08:42:35;1.00;;;0.63;;
283;SDS011;125;52.516;13.426;2023-11-21T08:45:02;4.10;;;2.47;;
283;SDS011;125;52.516;13.426;2023-11-21T08:47:30;2.83;;;1.70;;
283;SDS011;125;52.516;13.426;2023-11-21T08:49:57;3.60;;;2.40;;
283;SDS011;125;52.516;13.426;2023-11-21T08:52:24;11.40;;;4.63;;
283;SDS011;125;52.516;13.426;2023-11-21T08:54:52;4.90;;;3.47;;
283;SDS011;125;52.516;13.426;2023-11-21T08:57:21;11.53;;;2.67;;
283;SDS011;125;52.516;13.426;2023-11-21T08:59:49;5.17;;;1.63;;
283;SDS011;125;52.516;13.426;2023-11-21T09:02:20;3.73;;;2.10;;
283;SDS011;125;52.516;13.426;2023-11-21T09:04:48;3.23;;;1.50;;
283;SDS011;125;52.516;13.426;2023-11-21T09:07:15;4.43;;;1.63;;
283;SDS011;125;52.516;13.426;2023-11-21T09:09:43;1.90;;;1.23;;
283;SDS011;125;52.516;13.426;2023-11-21T09:12:11;4.17;;;3.23;;
283;SDS011;125;52.516;13.426;2023-11-21T09:14:38;2.30;;;1.97;;
283;SDS011;125;52.516;13.426;2023-11-21T09:17:07;13.67;;;5.57;;
283;SDS011;125;52.516;13.426;2023-11-21T09:19:36;6.63;;;3.70;;
283;SDS011;125;52.516;13.426;2023-11-21T09:22:02;7.93;;;3.60;;
283;SDS011;125;52.516;13.426;2023-11-21T09:24:30;3.37;;;1.40;;
283;SDS011;125;52.516;13.426;2023-11-21T09:26:57;1.57;;;1.43;;
283;SDS011;125;52.516;13.426;2023-11-21T09:29:25;33.13;;;3.33;;
283;SDS011;125;52.516;13.426;2023-11-21T09:31:52;3.10;;;2.80;;
283;SDS011;125;52.516;13.426;2023-11-21T09:34:21;2.40;;;2.20;;
283;SDS011;125;52.516;13.426;2023-11-21T09:36:48;0.80;;;0.57;;
283;SDS011;125;52.516;13.426;2023-11-21T09:39:15;2.30;;;1.53;;
283;SDS011;125;52.516;13.426;2023-11-21T09:41:43;10.90;;;1.70;;
283;SDS011;125;52.516;13.426;2023-11-21T09:44:13;3.27;;;1.40;;
283;SDS011;125;52.516;13.426;2023-11-21T09:46:41;1.77;;;1.77;;
283;SDS011;125;52.516;13.426;2023-11-21T09:49:08;2.67;;;2.43;;
283;SDS011;125;52.516;13.426;2023-11-21T09:51:38;2.40;;;1.50;;
283;SDS011;125;52.516;13.426;2023-11-21T09:54:06;2.40;;;1.70;;
283;SDS011;125;52.516;13.426;2023-11-21T09:56:34;1.97;;;1.23;;
283;SDS011;125;52.516;13.426;2023-11-21T09:59:01;9.00;;;2.00;;
283;SDS011;125;52.516;13.426;2023-11-21T10:01:32;1.57;;;1.30;;
283;SDS011;125;52.516;13.426;2023-11-21T10:03:59;0.97;;;0.47;;
283;SDS011;125;52.516;13.426;2023-11-21T10:06:27;2.40;;;1.73;;
283;SDS011;125;52.516;13.426;2023-11-21T10:08:56;1.70;;;0.70;;
283;SDS011;125;52.516;13.426;2023-11-21T10:11:24;1.03;;;0.80;;
283;SDS011;125;52.516;13.426;2023-11-21T10:13:52;1.47;;;0.80;;
283;SDS011;125;52.516;13.426;2023-11-21T10:16:22;0.90;;;0.60;;
283;SDS011;125;52.516;13.426;2023-11-21T10:18:50;1.87;;;1.13;;
283;SDS011;125;52.516;13.426;2023-11-21T10:21:19;3.57;;;1.43;;
283;SDS011;125;52.516;13.426;2023-11-21T10:23:46;2.50;;;1.53;;
283;SDS011;125;52.516;13.426;2023-11-21T10:26:15;1.10;;;0.50;;
283;SDS011;125;52.516;13.426;2023-11-21T10:28:54;1.00;;;0.60;;
283;SDS011;125;52.516;13.426;2023-11-21T10:31:24;0.80;;;0.50;;
283;SDS011;125;52.516;13.426;2023-11-21T10:33:53;1.53;;;1.43;;
283;SDS011;125;52.516;13.426;2023-11-21T10:36:24;0.80;;;0.50;;
283;SDS011;125;52.516;13.426;2023-11-21T10:38:52;2.10;;;1.67;;
283;SDS011;125;52.516;13.426;2023-11-21T10:41:21;1.23;;;0.70;;
283;SDS011;125;52.516;13.426;2023-11-21T10:43:48;4.30;;;0.93;;
283;SDS011;125;52.516;13.426;2023-11-21T10:46:15;1.67;;;0.77;;
283;SDS011;125;52.516;13.426;2023-11-21T10:48:43;1.20;;;0.57;;
283;SDS011;125;52.516;13.426;2023-11-21T10:51:12;3.03;;;1.90;;
283;SDS011;125;52.516;13.426;2023-11-21T10:53:39;1.10;;;0.80;;
283;SDS011;125;52.516;13.426;2023-11-21T10:56:08;2.10;;;0.63;;
283;SDS011;125;52.516;13.426;2023-11-21T10:58:38;2.70;;;1.10;;
283;SDS011;125;52.516;13.426;2023-11-21T11:01:05;1.83;;;1.73;;
283;SDS011;125;52.516;13.426;2023-11-21T11:03:37;5.97;;;0.93;;
283;SDS011;125;52.516;13.426;2023-11-21T11:06:05;1.00;;;0.60;;
283;SDS011;125;52.516;13.426;2023-11-21T11:08:36;0.90;;;0.67;;
283;SDS011;125;52.516;13.426;2023-11-21T11:11:04;1.17;;;0.97;;
283;SDS011;125;52.516;13.426;2023-11-21T11:13:31;1.07;;;0.90;;
283;SDS011;125;52.516;13.426;2023-11-21T11:16:00;3.43;;;3.00;;
283;SDS011;125;52.516;13.426;2023-11-21T11:18:27;0.80;;;0.63;;
283;SDS011;125;52.516;13.426;2023-11-21T11:20:55;1.10;;;0.80;;
283;SDS011;125;52.516;13.426;2023-11-21T11:23:30;1.03;;;0.67;;
283;SDS011;125;52.516;13.426;2023-11-21T11:26:04;7.50;;;2.10;;
283;SDS011;125;52.516;13.426;2023-11-21T11:28:35;1.73;;;1.10;;
283;SDS011;125;52.516;13.426;2023-11-21T11:31:10;3.87;;;1.67;;
283;SDS011;125;52.516;13.426;2023-11-21T11:33:43;1.80;;;1.70;;
283;SDS011;125;52.516;13.426;2023-11-21T11:36:14;1.00;;;0.70;;
283;SDS011;125;52.516;13.426;2023-11-21T11:38:46;0.90;;;0.50;;
283;SDS011;125;52.516;13.426;2023-11-21T11:41:15;3.67;;;1.40;;
283;SDS011;125;52.516;13.426;2023-11-21T11:43:50;1.00;;;0.53;;
283;SDS011;125;52.516;13.426;2023-11-21T11:46:18;1.90;;;0.73;;
283;SDS011;125;52.516;13.426;2023-11-21T11:48:47;0.93;;;0.67;;
283;SDS011;125;52.516;13.426;2023-11-21T11:51:15;1.57;;;1.53;;
283;SDS011;125;52.516;13.426;2023-11-21T11:53:44;2.23;;;1.30;;
283;SDS011;125;52.516;13.426;2023-11-21T11:56:22;1.00;;;0.83;;
283;SDS011;125;52.516;13.426;2023-11-21T11:58:50;1.93;;;1.60;;
283;SDS011;125;52.516;13.426;2023-11-21T12:01:19;1.17;;;0.60;;
283;SDS011;125;52.516;13.426;2023-11-21T12:06:32;0.90;;;0.77;;
283;SDS011;125;52.516;13.426;2023-11-21T12:09:00;3.53;;;0.87;;
283;SDS011;125;52.516;13.426;2023-11-21T12:11:30;1.50;;;0.70;;
283;SDS011;125;52.516;13.426;2023-11-21T12:13:57;1.37;;;1.17;;
283;SDS011;125;52.516;13.426;2023-11-21T12:16:26;0.97;;;0.83;;
283;SDS011;125;52.516;13.426;2023-11-21T12:18:53;1.30;;;1.07;;
283;SDS011;125;52.516;13.426;2023-11-21T12:21:20;1.70;;;1.60;;
283;SDS011;125;52.516;13.426;2023-11-21T12:23:47;1.50;;;0.80;;
283;SDS011;125;52.516;13.426;2023-11-21T12:26:14;0.90;;;0.80;;
283;SDS011;125;52.516;13.426;2023-11-21T12:28:41;1.83;;;1.57;;
283;SDS011;125;52.516;13.426;2023-11-21T12:31:08;1.10;;;0.80;;
283;SDS011;125;52.516;13.426;2023-11-21T12:33:37;1.33;;;0.57;;
283;SDS011;125;52.516;13.426;2023-11-21T12:36:04;0.97;;;0.70;;
283;SDS011;125;52.516;13.426;2023-11-21T12:38:34;1.33;;;1.00;;
283;SDS011;125;52.516;13.426;2023-11-21T12:41:01;1.93;;;0.80;;
283;SDS011;125;52.516;13.426;2023-11-21T12:43:28;1.70;;;1.63;;
283;SDS011;125;52.516;13.426;2023-11-21T12:46:04;1.43;;;1.00;;
283;SDS011;125;52.516;13.426;2023-11-21T12:48:31;1.00;;;0.87;;
283;SDS011;125;52.516;13.426;2023-11-21T12:50:59;0.90;;;0.70;;
283;SDS011;125;52.516;13.426;2023-11-21T12:53:27;7.03;;;1.63;;
283;SDS011;125;52.516;13.426;2023-11-21T12:56:01;1.73;;;1.00;;
283;SDS011;125;52.516;13.426;2023-11-21T12:58:29;1.93;;;0.70;;
283;SDS011;125;52.516;13.426;2023-11-21T13:00:55;0.90;;;0.60;;
283;SDS011;125;52.516;13.426;2023-11-21T13:03:24;1.30;;;0.90;;
283;SDS011;125;52.516;13.426;2023-11-21T13:05:52;2.53;;;2.13;;
283;SDS011;125;52.516;13.426;2023-11-21T13:08:24;0.80;;;0.40;;
283;SDS011;125;52.516;13.426;2023-11-21T13:10:51;1.10;;;0.90;;
283;SDS011;125;52.516;13.426;2023-11-21T13:13:20;1.50;;;1.00;;
283;SDS011;125;52.516;13.426;2023-11-21T13:15:47;1.17;;;0.97;;
283;SDS011;125;52.516;13.426;2023-11-21T13:18:14;1.40;;;1.37;;
283;SDS011;125;52.516;13.426;2023-11-21T13:20:42;4.17;;;1.80;;
283;SDS011;125;52.516;13.426;2023-11-21T13:23:09;1.40;;;1.30;;
283;SDS011;125;52.516;13.426;2023-11-21T13:25:38;1.83;;;1.43;;
283;SDS011;125;52.516;13.426;2023-11-21T13:28:06;2.70;;;0.93;;
283;SDS011;125;52.516;13.426;2023-11-21T13:30:34;2.50;;;1.80;;
283;SDS011;125;52.516;13.426;2023-11-21T13:33:02;2.40;;;2.20;;
283;SDS011;125;52.516;13.426;2023-11-21T13:35:31;1.73;;;1.67;;
283;SDS011;125;52.516;13.426;2023-11-21T13:38:03;2.33;;;2.13;;
283;SDS011;125;52.516;13.426;2023-11-21T13:40:31;2.93;;;2.73;;
283;SDS011;125;52.516;13.426;2023-11-21T13:43:01;0.90;;;0.90;;
283;SDS011;125;52.516;13.426;2023-11-21T13:45:30;1.90;;;1.43;;
283;SDS011;125;52.516;13.426;2023-11-21T13:47:57;1.07;;;1.03;;
283;SDS011;125;52.516;13.426;2023-11-21T13:50:24;3.33;;;1.73;;
283;SDS011;125;52.516;13.426;2023-11-21T13:52:57;4.03;;;2.93;;
283;SDS011;125;52.516;13.426;2023-11-21T13:55:29;2.13;;;1.97;;
283;SDS011;125;52.516;13.426;2023-11-21T13:57:56;2.10;;;1.70;;
283;SDS011;125;52.516;13.426;2023-11-21T14:00:25;2.00;;;1.93;;
283;SDS011;125;52.516;13.426;2023-11-21T14:03:06;3.47;;;3.33;;
283;SDS011;125;52.516;13.426;2023-11-21T14:05:41;2.40;;;2.20;;
283;SDS011;125;52.516;13.426;2023-11-21T14:08:09;2.97;;;1.50;;
283;SDS011;125;52.516;13.426;2023-11-21T14:10:42;2.00;;;1.23;;
283;SDS011;125;52.516;13.426;2023-11-21T14:13:14;8.40;;;2.43;;
283;SDS011;125;52.516;13.426;2023-11-21T14:15:43;5.97;;;3.33;;
283;SDS011;125;52.516;13.426;2023-11-21T14:18:15;5.40;;;5.00;;
283;SDS011;125;52.516;13.426;2023-11-21T14:20:46;3.97;;;3.03;;
283;SDS011;125;52.516;13.426;2023-11-21T14:23:13;4.80;;;4.53;;
283;SDS011;125;52.516;13.426;2023-11-21T14:25:40;3.07;;;2.70;;
283;SDS011;125;52.516;13.426;2023-11-21T14:28:07;7.10;;;4.03;;
283;SDS011;125;52.516;13.426;2023-11-21T14:30:36;6.00;;;5.70;;
283;SDS011;125;52.516;13.426;2023-11-21T14:33:06;3.63;;;3.43;;
283;SDS011;125;52.516;13.426;2023-11-21T14:35:33;2.80;;;2.17;;
283;SDS011;125;52.516;13.426;2023-11-21T14:38:00;7.00;;;3.80;;
283;SDS011;125;52.516;13.426;2023-11-21T14:40:29;4.77;;;4.43;;
283;SDS011;125;52.516;13.426;2023-11-21T14:42:58;6.63;;;4.00;;
283;SDS011;125;52.516;13.426;2023-11-21T14:45:25;9.33;;;5.47;;
283;SDS011;125;52.516;13.426;2023-11-21T14:47:54;2.13;;;1.97;;
283;SDS011;125;52.516;13.426;2023-11-21T14:50:32;4.03;;;3.37;;
283;SDS011;125;52.516;13.426;2023-11-21T14:53:19;5.97;;;4.27;;
283;SDS011;125;52.516;13.426;2023-11-21T14:56:07;4.87;;;2.43;;
283;SDS011;125;52.516;13.426;2023-11-21T14:58:33;5.60;;;3.20;;
283;SDS011;125;52.516;13.426;2023-11-21T15:01:02;6.10;;;4.13;;
283;SDS011;125;52.516;13.426;2023-11-21T15:03:29;4.77;;;4.40;;
283;SDS011;125;52.516;13.426;2023-11-21T15:06:16;13.00;;;7.60;;
283;SDS011;125;52.516;13.426;2023-11-21T15:08:52;4.10;;;3.33;;
283;SDS011;125;52.516;13.426;2023-11-21T15:11:24;3.87;;;3.67;;
283;SDS011;125;52.516;13.426;2023-11-21T15:13:55;5.07;;;4.67;;
283;SDS011;125;52.516;13.426;2023-11-21T15:16:22;3.27;;;3.07;;
283;SDS011;125;52.516;13.426;2023-11-21T15:18:48;6.13;;;5.70;;
283;SDS011;125;52.516;13.426;2023-11-21T15:21:16;4.40;;;3.87;;
283;SDS011;125;52.516;13.426;2023-11-21T15:23:43;2.77;;;2.63;;
283;SDS011;125;52.516;13.426;2023-11-21T15:26:11;4.17;;;3.93;;
283;SDS011;125;52.516;13.426;2023-11-21T15:28:38;4.57;;;4.30;;
283;SDS011;125;52.516;13.426;2023-11-21T15:31:06;6.83;;;6.43;;
283;SDS011;125;52.516;13.426;2023-11-21T15:33:33;4.43;;;4.13;;
283;SDS011;125;52.516;13.426;2023-11-21T15:36:02;5.53;;;3.20;;
283;SDS011;125;52.516;13.426;2023-11-21T15:38:30;4.27;;;4.00;;